createdAt,value
2022-10-26T00:00:12.376Z,13.02
2022-10-26T00:02:16.985Z,13.25
2022-10-26T00:04:21.666Z,12.85
2022-10-26T00:06:29.080Z,13.77
2022-10-26T00:08:33.782Z,13.95
2022-10-26T00:10:38.956Z,14.15
2022-10-26T00:12:43.160Z,15.38
2022-10-26T00:14:48.913Z,14.65
2022-10-26T00:16:53.171Z,14.30
2022-10-26T00:18:57.670Z,14.25
2022-10-26T00:21:05.882Z,13.88
2022-10-26T00:23:10.194Z,14.25
2022-10-26T00:25:14.329Z,14.65
2022-10-26T00:27:18.544Z,14.52
2022-10-26T00:29:22.727Z,15.00
2022-10-26T00:31:28.838Z,14.57
2022-10-26T00:33:33.442Z,15.93
2022-10-26T00:35:46.300Z,15.38
2022-10-26T00:37:50.738Z,15.52
2022-10-26T00:39:57.832Z,14.55
2022-10-26T00:42:05.303Z,14.73
2022-10-26T00:44:48.612Z,14.70
2022-10-26T00:46:54.243Z,15.88
2022-10-26T00:49:01.453Z,14.60
2022-10-26T00:51:10.220Z,14.63
2022-10-26T00:53:15.129Z,14.98
2022-10-26T00:55:22.645Z,14.60
2022-10-26T00:57:28.241Z,14.95
2022-10-26T00:59:32.903Z,15.10
2022-10-26T01:01:40.540Z,15.00
2022-10-26T01:03:47.912Z,14.05
2022-10-26T01:05:55.038Z,14.30
2022-10-26T01:07:59.931Z,14.93
2022-10-26T01:10:04.741Z,14.25
2022-10-26T01:12:08.998Z,15.07
2022-10-26T01:14:15.268Z,14.32
2022-10-26T01:16:40.749Z,13.57
2022-10-26T01:18:59.906Z,16.40
2022-10-26T01:21:40.619Z,15.52
2022-10-26T01:24:00.306Z,15.27
2022-10-26T01:26:18.749Z,14.40
2022-10-26T01:28:38.981Z,15.77
2022-10-26T01:30:48.284Z,15.20
2022-10-26T01:33:28.450Z,15.60
2022-10-26T01:35:37.131Z,15.90
2022-10-26T01:37:49.567Z,16.00
2022-10-26T01:39:56.497Z,16.45
2022-10-26T01:42:02.964Z,16.88
2022-10-26T01:44:13.796Z,16.55
2022-10-26T01:46:20.984Z,17.20
2022-10-26T01:48:27.344Z,17.48
2022-10-26T01:50:33.336Z,17.58
2022-10-26T01:52:37.668Z,15.90
2022-10-26T01:54:41.865Z,17.20
2022-10-26T01:56:49.332Z,17.08
2022-10-26T01:59:28.049Z,16.52
2022-10-26T02:01:48.483Z,18.30
2022-10-26T02:04:02.979Z,16.42
2022-10-26T02:06:18.458Z,16.52
2022-10-26T02:08:37.152Z,14.88
2022-10-26T02:10:49.787Z,14.68
2022-10-26T02:13:01.821Z,13.48
2022-10-26T02:15:35.513Z,14.15
2022-10-26T02:17:50.958Z,15.27
2022-10-26T02:20:01.097Z,15.10
2022-10-26T02:24:15.176Z,14.10
2022-10-26T02:26:23.470Z,13.98
2022-10-26T02:28:31.640Z,15.23
2022-10-26T02:30:37.831Z,16.45
2022-10-26T02:32:47.846Z,16.55
2022-10-26T02:34:53.851Z,15.48
2022-10-26T02:37:01.132Z,15.48
2022-10-26T02:39:07.568Z,15.50
2022-10-26T02:41:14.682Z,13.88
2022-10-26T02:43:22.398Z,13.35
2022-10-26T02:45:30.416Z,14.07
2022-10-26T02:47:35.103Z,14.55
2022-10-26T02:49:41.156Z,14.80
2022-10-26T02:54:00.536Z,16.38
2022-10-26T02:56:11.292Z,16.13
2022-10-26T02:58:21.088Z,16.05
2022-10-26T03:00:28.085Z,16.58
2022-10-26T03:02:32.346Z,17.60
2022-10-26T03:04:37.044Z,16.75
2022-10-26T03:06:42.874Z,17.52
2022-10-26T03:08:47.189Z,17.17
2022-10-26T03:10:51.748Z,16.02
2022-10-26T03:12:56.361Z,17.25
2022-10-26T03:15:01.009Z,17.38
2022-10-26T03:17:05.902Z,16.50
2022-10-26T03:19:10.719Z,16.95
2022-10-26T03:21:15.315Z,15.70
2022-10-26T03:23:21.285Z,17.00
2022-10-26T03:25:27.403Z,15.30
2022-10-26T03:27:31.636Z,14.43
2022-10-26T03:29:35.866Z,14.48
2022-10-26T03:31:40.010Z,15.48
2022-10-26T03:33:44.230Z,15.98
2022-10-26T03:35:48.288Z,13.77
2022-10-26T03:37:52.944Z,14.77
2022-10-26T03:39:58.669Z,14.40
2022-10-26T03:42:02.879Z,14.73
2022-10-26T03:44:07.270Z,15.82
2022-10-26T03:46:11.655Z,16.15
2022-10-26T03:48:16.129Z,15.88
2022-10-26T03:50:22.528Z,15.73
2022-10-26T03:52:26.636Z,15.93
2022-10-26T03:54:31.222Z,14.88
2022-10-26T03:56:37.253Z,15.25
2022-10-26T03:58:41.497Z,16.83
2022-10-26T04:00:45.846Z,16.00
2022-10-26T04:02:56.169Z,15.68
2022-10-26T04:05:00.453Z,16.67
2022-10-26T04:07:05.073Z,14.80
2022-10-26T04:09:09.618Z,16.42
2022-10-26T04:11:13.855Z,15.40
2022-10-26T04:13:19.479Z,15.25
2022-10-26T04:15:24.554Z,15.98
2022-10-26T04:17:29.645Z,15.48
2022-10-26T04:19:33.974Z,15.13
2022-10-26T04:21:38.393Z,15.50
2022-10-26T04:23:42.797Z,15.40
2022-10-26T04:25:47.354Z,16.15
2022-10-26T04:27:51.852Z,16.52
2022-10-26T04:29:57.757Z,16.80
2022-10-26T04:32:02.156Z,15.90
2022-10-26T04:34:06.613Z,16.23
2022-10-26T04:36:11.345Z,15.85
2022-10-26T04:38:15.760Z,15.68
2022-10-26T04:40:20.014Z,17.05
2022-10-26T04:42:24.400Z,17.77
2022-10-26T04:44:28.615Z,17.60
2022-10-26T04:46:47.420Z,18.58
2022-10-26T04:48:52.025Z,19.08
2022-10-26T04:50:59.615Z,17.15
2022-10-26T04:53:04.356Z,18.67
2022-10-26T04:55:09.567Z,17.23
2022-10-26T04:57:13.748Z,17.67
2022-10-26T04:59:18.089Z,15.98
2022-10-26T05:01:22.488Z,17.73
2022-10-26T05:03:28.343Z,17.25
2022-10-26T05:05:35.168Z,18.20
2022-10-26T05:07:40.307Z,18.10
2022-10-26T05:09:44.617Z,17.85
2022-10-26T05:11:48.818Z,17.73
2022-10-26T05:13:52.927Z,17.50
2022-10-26T05:15:57.160Z,17.30
2022-10-26T05:18:03.568Z,16.77
2022-10-26T05:20:13.632Z,16.92
2022-10-26T05:22:17.963Z,18.40
2022-10-26T05:24:22.288Z,19.30
2022-10-26T05:26:26.758Z,21.48
2022-10-26T05:28:31.179Z,22.17
2022-10-26T05:30:35.799Z,20.75
2022-10-26T05:32:39.965Z,19.10
2022-10-26T05:34:44.222Z,21.00
2022-10-26T05:36:49.940Z,19.02
2022-10-26T05:38:54.084Z,20.40
2022-10-26T05:40:59.258Z,20.50
2022-10-26T05:43:04.327Z,19.95
2022-10-26T05:45:09.413Z,21.48
2022-10-26T05:47:13.783Z,25.98
2022-10-26T05:49:18.116Z,21.27
2022-10-26T05:51:22.312Z,21.10
2022-10-26T05:53:28.545Z,20.48
2022-10-26T05:55:33.606Z,20.38
2022-10-26T05:57:38.698Z,20.88
2022-10-26T05:59:43.291Z,20.17
2022-10-26T06:02:02.811Z,19.80
2022-10-26T06:04:23.010Z,19.52
2022-10-26T06:08:35.223Z,21.40
2022-10-26T06:10:40.469Z,23.23
2022-10-26T06:12:45.442Z,20.65
2022-10-26T06:14:50.363Z,20.13
2022-10-26T06:17:04.975Z,22.00
2022-10-26T06:19:20.267Z,21.83
2022-10-26T06:21:39.321Z,19.80
2022-10-26T06:23:53.057Z,19.83
2022-10-26T06:26:04.794Z,21.10
2022-10-26T06:28:20.719Z,20.58
2022-10-26T06:30:25.234Z,19.48
2022-10-26T06:32:30.100Z,21.02
2022-10-26T06:34:36.397Z,20.65
2022-10-26T06:36:42.337Z,21.42
2022-10-26T06:38:49.862Z,19.33
2022-10-26T06:40:56.513Z,18.75
2022-10-26T06:43:01.218Z,21.80
2022-10-26T06:45:06.494Z,18.05
2022-10-26T06:47:23.443Z,18.10
2022-10-26T06:49:33.347Z,19.27
2022-10-26T06:51:44.802Z,19.48
2022-10-26T06:53:58.409Z,18.50
2022-10-26T06:56:02.941Z,17.08
2022-10-26T06:58:13.304Z,16.58
2022-10-26T07:00:23.783Z,16.27
2022-10-26T07:02:28.373Z,17.02
2022-10-26T07:04:32.779Z,16.42
2022-10-26T07:06:39.250Z,17.05
2022-10-26T07:08:44.196Z,17.77
2022-10-26T07:10:49.831Z,18.30
2022-10-26T07:12:54.001Z,18.85
2022-10-26T07:14:58.156Z,20.30
2022-10-26T07:17:02.413Z,19.15
2022-10-26T07:19:06.610Z,17.70
2022-10-26T07:21:11.041Z,15.63
2022-10-26T07:23:15.994Z,16.05
2022-10-26T07:25:20.336Z,13.82
2022-10-26T07:27:26.039Z,11.82
2022-10-26T07:29:30.612Z,11.70
2022-10-26T07:31:34.711Z,10.55
2022-10-26T07:33:41.455Z,10.18
2022-10-26T07:35:45.764Z,11.30
2022-10-26T07:37:49.903Z,9.98
2022-10-26T07:39:54.107Z,9.02
2022-10-26T07:41:58.494Z,10.65
2022-10-26T07:44:04.182Z,10.02
2022-10-26T07:46:08.444Z,9.45
2022-10-26T07:48:12.577Z,8.18
2022-10-26T07:50:17.075Z,8.85
2022-10-26T07:52:21.214Z,6.07
2022-10-26T07:54:25.484Z,5.20
2022-10-26T07:56:30.065Z,4.40
2022-10-26T07:58:34.517Z,5.65
2022-10-26T08:00:40.132Z,5.68
2022-10-26T08:02:45.017Z,5.93
2022-10-26T08:04:49.287Z,6.22
2022-10-26T08:06:53.680Z,5.60
2022-10-26T08:08:58.431Z,5.70
2022-10-26T08:11:03.701Z,6.03
2022-10-26T08:13:07.906Z,5.65
2022-10-26T08:15:12.454Z,5.40
2022-10-26T08:17:17.983Z,5.78
2022-10-26T08:19:22.119Z,6.22
2022-10-26T08:21:36.506Z,6.00
2022-10-26T08:23:44.529Z,5.97
2022-10-26T08:25:49.150Z,5.78
2022-10-26T08:27:54.297Z,6.10
2022-10-26T08:29:59.364Z,5.80
2022-10-26T08:32:03.699Z,5.40
2022-10-26T08:34:10.451Z,5.45
2022-10-26T08:36:20.072Z,5.95
2022-10-26T08:38:24.404Z,6.47
2022-10-26T08:40:36.320Z,6.60
2022-10-26T08:42:44.591Z,8.20
2022-10-26T08:44:50.148Z,6.25
2022-10-26T08:46:59.646Z,5.63
2022-10-26T08:49:11.758Z,5.85
2022-10-26T08:51:21.077Z,6.57
2022-10-26T08:53:31.418Z,8.02
2022-10-26T08:57:50.115Z,6.53
2022-10-26T08:59:59.464Z,7.20
2022-10-26T09:02:04.060Z,6.93
2022-10-26T09:04:13.242Z,6.40
2022-10-26T09:06:27.328Z,6.10
2022-10-26T09:08:39.882Z,6.03
2022-10-26T09:10:55.260Z,5.55
2022-10-26T09:13:06.895Z,6.30
2022-10-26T09:15:21.787Z,6.00
2022-10-26T09:17:41.900Z,6.13
2022-10-26T09:20:20.767Z,5.45
2022-10-26T09:22:31.484Z,6.53
2022-10-26T09:24:43.885Z,5.82
2022-10-26T09:26:56.140Z,6.30
2022-10-26T09:29:04.573Z,5.55
2022-10-26T09:31:15.631Z,5.07
2022-10-26T09:33:25.737Z,5.65
2022-10-26T09:35:37.114Z,5.72
2022-10-26T09:37:48.946Z,5.45
2022-10-26T09:40:06.377Z,5.28
2022-10-26T09:42:20.371Z,5.53
2022-10-26T09:44:30.298Z,5.50
2022-10-26T09:48:45.300Z,5.80
2022-10-26T09:50:52.641Z,5.82
2022-10-26T09:52:58.504Z,5.43
2022-10-26T09:55:02.891Z,5.00
2022-10-26T09:57:09.023Z,5.50
2022-10-26T09:59:15.900Z,4.75
2022-10-26T10:01:29.917Z,5.75
2022-10-26T10:03:34.716Z,5.15
2022-10-26T10:05:50.727Z,5.28
2022-10-26T10:08:20.979Z,5.25
2022-10-26T10:10:25.186Z,4.35
2022-10-26T10:12:29.451Z,5.20
2022-10-26T10:14:38.890Z,4.35
2022-10-26T10:16:52.764Z,5.03
2022-10-26T10:18:59.457Z,4.72
2022-10-26T10:21:05.909Z,5.15
2022-10-26T10:23:28.306Z,5.03
2022-10-26T10:25:38.658Z,5.35
2022-10-26T10:27:55.430Z,4.90
2022-10-26T10:30:04.045Z,5.50
2022-10-26T10:32:16.952Z,4.68
2022-10-26T10:34:24.642Z,5.70
2022-10-26T10:36:31.770Z,4.75
2022-10-26T10:38:41.680Z,4.70
2022-10-26T10:40:52.289Z,4.80
2022-10-26T10:43:06.637Z,4.97
2022-10-26T10:45:23.117Z,5.07
2022-10-26T10:47:29.822Z,5.25
2022-10-26T10:49:34.792Z,4.93
2022-10-26T10:51:41.410Z,5.18
2022-10-26T10:53:50.007Z,4.72
2022-10-26T10:56:25.234Z,5.15
2022-10-26T10:58:34.721Z,4.85
2022-10-26T11:00:39.753Z,5.40
2022-10-26T11:03:17.089Z,5.05
2022-10-26T11:05:29.219Z,5.55
2022-10-26T11:07:38.109Z,5.00
2022-10-26T11:09:46.678Z,4.53
2022-10-26T11:11:54.692Z,4.25
2022-10-26T11:14:05.406Z,4.93
2022-10-26T11:16:15.235Z,5.07
2022-10-26T11:20:28.038Z,4.18
2022-10-26T11:22:37.709Z,4.53
2022-10-26T11:24:47.283Z,5.45
2022-10-26T11:26:56.075Z,5.93
2022-10-26T11:29:03.615Z,6.00
2022-10-26T11:31:14.870Z,6.00
2022-10-26T11:33:24.524Z,5.20
2022-10-26T11:35:33.962Z,5.10
2022-10-26T11:37:44.694Z,6.40
2022-10-26T11:40:03.003Z,5.53
2022-10-26T11:42:15.072Z,5.45
2022-10-26T11:44:25.950Z,5.55
2022-10-26T11:46:35.927Z,6.40
2022-10-26T11:48:46.174Z,5.78
2022-10-26T11:50:54.667Z,5.47
2022-10-26T11:53:03.251Z,5.13
2022-10-26T11:55:11.920Z,4.22
2022-10-26T11:57:17.970Z,4.40
2022-10-26T11:59:25.209Z,5.10
2022-10-26T12:01:31.862Z,4.73
2022-10-26T12:03:40.413Z,5.43
2022-10-26T12:05:50.827Z,4.28
2022-10-26T12:07:57.970Z,4.65
2022-10-26T12:10:04.304Z,4.25
2022-10-26T12:12:17.947Z,4.95
2022-10-26T12:14:28.132Z,4.90
2022-10-26T12:16:44.395Z,4.60
2022-10-26T12:18:56.763Z,4.88
2022-10-26T12:21:05.975Z,4.13
2022-10-26T12:23:19.019Z,4.03
2022-10-26T12:25:32.649Z,3.83
2022-10-26T12:27:54.696Z,4.28
2022-10-26T12:30:24.637Z,3.38
2022-10-26T12:32:58.738Z,4.07
2022-10-26T12:35:05.616Z,3.75
2022-10-26T12:37:25.487Z,4.22
2022-10-26T12:41:40.058Z,4.32
2022-10-26T12:43:46.734Z,4.50
2022-10-26T12:46:36.496Z,4.20
2022-10-26T12:50:46.272Z,4.32
2022-10-26T12:52:54.674Z,4.75
2022-10-26T12:55:29.034Z,4.63
2022-10-26T12:57:45.901Z,5.05
2022-10-26T13:00:00.116Z,5.82
2022-10-26T13:02:35.557Z,5.88
2022-10-26T13:05:00.108Z,5.65
2022-10-26T13:07:21.002Z,5.18
2022-10-26T13:09:28.972Z,5.32
2022-10-26T13:11:35.770Z,5.88
2022-10-26T13:13:40.875Z,5.65
2022-10-26T13:15:56.796Z,5.65
2022-10-26T13:18:03.906Z,5.43
2022-10-26T13:20:18.347Z,5.63
2022-10-26T13:22:24.522Z,5.60
2022-10-26T13:24:31.361Z,5.55
2022-10-26T13:27:13.250Z,5.60
2022-10-26T13:29:19.256Z,5.22
2022-10-26T13:31:56.530Z,5.78
2022-10-26T13:34:03.471Z,5.30
2022-10-26T13:36:18.488Z,5.30
2022-10-26T13:38:27.115Z,5.47
2022-10-26T13:40:31.724Z,5.40
2022-10-26T13:42:49.216Z,5.05
2022-10-26T13:44:58.564Z,4.97
2022-10-26T13:47:08.194Z,5.40
2022-10-26T13:49:20.223Z,5.45
2022-10-26T13:51:31.679Z,5.53
2022-10-26T13:53:41.528Z,6.30
2022-10-26T13:55:54.239Z,6.03
2022-10-26T13:58:12.784Z,5.75
2022-10-26T14:00:22.166Z,5.85
2022-10-26T14:02:28.246Z,5.90
2022-10-26T14:04:32.367Z,5.25
2022-10-26T14:06:39.352Z,5.50
2022-10-26T14:08:46.363Z,5.07
2022-10-26T14:10:56.290Z,5.60
2022-10-26T14:15:09.570Z,5.38
2022-10-26T14:17:21.346Z,5.82
2022-10-26T14:19:28.890Z,5.38
2022-10-26T14:21:33.097Z,5.15
2022-10-26T14:23:46.403Z,5.43
2022-10-26T14:25:58.959Z,6.15
2022-10-26T14:28:04.966Z,5.40
2022-10-26T14:30:23.855Z,5.20
2022-10-26T14:32:32.121Z,5.47
2022-10-26T14:34:36.446Z,5.63
2022-10-26T14:36:45.832Z,5.65
2022-10-26T14:38:55.530Z,5.28
2022-10-26T14:41:00.280Z,8.45
2022-10-26T14:43:06.697Z,5.68
2022-10-26T14:45:29.692Z,5.85
2022-10-26T14:47:37.694Z,6.30
2022-10-26T14:49:47.537Z,6.03
2022-10-26T14:54:03.280Z,5.88
2022-10-26T14:56:25.683Z,5.72
2022-10-26T14:58:31.745Z,6.03
2022-10-26T15:00:36.572Z,6.05
2022-10-26T15:02:43.132Z,6.03
2022-10-26T15:04:59.763Z,5.78
2022-10-26T15:07:10.531Z,5.55
2022-10-26T15:09:44.787Z,6.38
2022-10-26T15:11:50.305Z,6.30
2022-10-26T15:13:56.363Z,5.97
2022-10-26T15:16:11.290Z,7.53
2022-10-26T15:18:23.280Z,6.68
2022-10-26T15:20:30.212Z,7.55
2022-10-26T15:22:35.952Z,6.75
2022-10-26T15:24:40.905Z,6.95
2022-10-26T15:26:45.370Z,8.65
2022-10-26T15:28:50.389Z,9.23
2022-10-26T15:31:03.687Z,32.92
2022-10-26T15:33:22.506Z,31.92
2022-10-26T15:35:31.494Z,23.75
2022-10-26T15:37:35.809Z,12.67
2022-10-26T15:39:40.024Z,14.48
2022-10-26T15:41:48.252Z,51.60
2022-10-26T15:43:54.144Z,42.92
2022-10-26T15:45:59.004Z,33.22
2022-10-26T15:48:25.748Z,45.50
2022-10-26T15:50:30.643Z,44.20
2022-10-26T15:52:37.127Z,42.60
2022-10-26T15:54:41.504Z,35.70
2022-10-26T15:56:46.594Z,26.67
2022-10-26T15:58:51.568Z,19.63
2022-10-26T16:00:55.949Z,20.02
2022-10-26T16:03:00.898Z,43.35
2022-10-26T16:05:07.750Z,103.35
2022-10-26T16:07:15.655Z,188.32
2022-10-26T16:09:20.371Z,127.07
2022-10-26T16:11:24.932Z,92.10
2022-10-26T16:13:30.747Z,48.13
2022-10-26T16:15:35.202Z,28.23
2022-10-26T16:17:39.497Z,30.45
2022-10-26T16:19:44.366Z,16.17
2022-10-26T16:21:52.718Z,16.13
2022-10-26T16:23:58.543Z,26.60
2022-10-26T16:26:04.879Z,28.75
2022-10-26T16:28:10.930Z,83.45
2022-10-26T16:30:16.435Z,69.50
2022-10-26T16:32:20.982Z,69.88
2022-10-26T16:34:25.484Z,44.22
2022-10-26T16:36:29.687Z,40.95
2022-10-26T16:38:35.273Z,32.30
2022-10-26T16:40:42.673Z,23.65
2022-10-26T16:42:47.216Z,30.85
2022-10-26T16:44:51.734Z,29.85
2022-10-26T16:46:56.498Z,31.15
2022-10-26T16:49:00.831Z,187.57
2022-10-26T16:51:10.157Z,194.73
2022-10-26T16:53:14.365Z,183.32
2022-10-26T16:55:24.869Z,169.88
2022-10-26T16:57:29.266Z,208.85
2022-10-26T16:59:33.798Z,184.10
2022-10-26T17:01:38.138Z,125.55
2022-10-26T17:03:45.605Z,29.33
2022-10-26T17:05:56.920Z,63.97
2022-10-26T17:08:01.096Z,78.82
2022-10-26T17:10:06.239Z,63.40
2022-10-26T17:12:12.287Z,76.90
2022-10-26T17:14:16.723Z,91.25
2022-10-26T17:16:22.828Z,77.00
2022-10-26T17:18:27.250Z,24.45
2022-10-26T17:20:31.672Z,38.85
2022-10-26T17:22:36.040Z,19.88
2022-10-26T17:24:40.298Z,23.08
2022-10-26T17:26:44.948Z,25.20
2022-10-26T17:28:54.827Z,25.88
2022-10-26T17:31:07.465Z,29.17
2022-10-26T17:33:12.666Z,30.25
2022-10-26T17:35:17.071Z,27.90
2022-10-26T17:37:21.420Z,31.00
2022-10-26T17:39:25.868Z,30.63
2022-10-26T17:41:30.259Z,25.58
2022-10-26T17:43:35.339Z,25.85
2022-10-26T17:45:41.220Z,26.77
2022-10-26T17:47:45.692Z,27.65
2022-10-26T17:49:49.937Z,32.63
2022-10-26T17:51:57.128Z,30.80
2022-10-26T17:54:01.623Z,27.25
2022-10-26T17:56:08.509Z,35.70
2022-10-26T17:58:12.767Z,29.52
2022-10-26T18:00:18.524Z,29.33
2022-10-26T18:02:24.529Z,27.45
2022-10-26T18:04:28.853Z,28.15
2022-10-26T18:06:33.508Z,27.40
2022-10-26T18:08:39.276Z,30.42
2022-10-26T18:10:48.273Z,32.35
2022-10-26T18:12:53.692Z,33.75
2022-10-26T18:14:59.942Z,32.80
2022-10-26T18:17:04.299Z,30.65
2022-10-26T18:19:11.073Z,29.40
2022-10-26T18:21:15.804Z,26.20
2022-10-26T18:23:19.897Z,21.30
2022-10-26T18:25:24.142Z,26.98
2022-10-26T18:27:28.314Z,22.67
2022-10-26T18:29:34.997Z,34.70
2022-10-26T18:31:41.941Z,27.00
2022-10-26T18:33:46.448Z,27.83
2022-10-26T18:35:52.143Z,28.27
2022-10-26T18:37:56.263Z,27.70
2022-10-26T18:40:00.926Z,26.60
2022-10-26T18:42:05.244Z,27.63
2022-10-26T18:44:11.172Z,19.52
2022-10-26T18:46:19.153Z,15.95
2022-10-26T18:48:25.842Z,16.42
2022-10-26T18:50:29.961Z,15.70
2022-10-26T18:52:35.688Z,14.95
2022-10-26T18:54:39.870Z,14.88
2022-10-26T18:56:43.982Z,13.43
2022-10-26T18:58:50.483Z,14.45
2022-10-26T19:00:54.745Z,13.00
2022-10-26T19:02:59.346Z,11.52
2022-10-26T19:05:03.922Z,12.30
2022-10-26T19:07:08.143Z,11.07
2022-10-26T19:09:14.385Z,9.77
2022-10-26T19:11:20.224Z,10.32
2022-10-26T19:13:24.439Z,10.23
2022-10-26T19:15:28.547Z,9.60
2022-10-26T19:17:32.863Z,9.50
2022-10-26T19:19:36.982Z,9.15
2022-10-26T19:21:41.287Z,8.68
2022-10-26T19:23:46.998Z,9.32
2022-10-26T19:25:56.945Z,8.70
2022-10-26T19:28:01.232Z,9.27
2022-10-26T19:30:05.789Z,8.60
2022-10-26T19:32:09.953Z,8.48
2022-10-26T19:34:16.428Z,8.15
2022-10-26T19:36:20.721Z,8.02
2022-10-26T19:38:25.240Z,9.07
2022-10-26T19:40:29.374Z,8.05
2022-10-26T19:42:34.946Z,7.50
2022-10-26T19:44:39.154Z,8.20
2022-10-26T19:46:43.723Z,7.93
2022-10-26T19:48:50.687Z,8.07
2022-10-26T19:50:56.233Z,7.65
2022-10-26T19:53:02.171Z,7.85
2022-10-26T19:55:07.610Z,7.88
2022-10-26T19:57:11.807Z,6.97
2022-10-26T19:59:17.460Z,7.80
2022-10-26T20:01:23.868Z,7.53
2022-10-26T20:03:29.118Z,8.48
2022-10-26T20:05:33.611Z,10.02
2022-10-26T20:07:37.863Z,8.60
2022-10-26T20:09:42.048Z,9.75
2022-10-26T20:11:46.678Z,9.90
2022-10-26T20:13:51.181Z,10.00
2022-10-26T20:15:56.938Z,10.98
2022-10-26T20:18:01.186Z,9.80
2022-10-26T20:20:05.982Z,10.10
2022-10-26T20:22:10.667Z,9.48
2022-10-26T20:24:14.869Z,9.90
2022-10-26T20:26:20.165Z,9.75
2022-10-26T20:28:25.109Z,9.05
2022-10-26T20:30:30.322Z,9.20
2022-10-26T20:32:35.964Z,8.45
2022-10-26T20:34:42.605Z,7.70
2022-10-26T20:36:49.688Z,10.68
2022-10-26T20:38:55.461Z,9.10
2022-10-26T20:41:02.665Z,8.73
2022-10-26T20:43:11.717Z,9.02
2022-10-26T20:45:18.175Z,9.95
2022-10-26T20:47:22.786Z,9.15
2022-10-26T20:49:29.291Z,9.73
2022-10-26T20:51:56.695Z,9.52
2022-10-26T20:54:12.915Z,9.15
2022-10-26T20:56:23.870Z,9.43
2022-10-26T20:58:40.049Z,7.47
2022-10-26T21:00:48.344Z,6.70
2022-10-26T21:02:52.960Z,6.25
2022-10-26T21:04:58.901Z,7.28
2022-10-26T21:07:03.223Z,6.30
2022-10-26T21:09:08.342Z,7.32
2022-10-26T21:11:12.718Z,7.13
2022-10-26T21:13:16.853Z,6.90
2022-10-26T21:15:20.953Z,7.75
2022-10-26T21:17:25.193Z,7.38
2022-10-26T21:19:29.437Z,6.63
2022-10-26T21:21:35.241Z,6.95
2022-10-26T21:23:40.812Z,6.68
2022-10-26T21:25:44.935Z,6.90
2022-10-26T21:27:49.437Z,6.32
2022-10-26T21:29:53.766Z,6.95
2022-10-26T21:31:57.927Z,7.13
2022-10-26T21:34:02.461Z,8.75
2022-10-26T21:36:08.732Z,7.65
2022-10-26T21:38:14.305Z,9.25
2022-10-26T21:40:18.635Z,6.93
2022-10-26T21:42:22.753Z,7.38
2022-10-26T21:44:40.582Z,7.22
2022-10-26T21:46:45.266Z,7.57
2022-10-26T21:48:49.505Z,7.88
2022-10-26T21:50:53.633Z,7.00
2022-10-26T21:52:57.719Z,8.82
2022-10-26T21:55:03.539Z,8.05
2022-10-26T21:57:07.781Z,10.52
2022-10-26T21:59:11.878Z,10.20
2022-10-26T22:01:17.718Z,11.13
2022-10-26T22:03:22.032Z,10.13
2022-10-26T22:05:26.194Z,10.52
2022-10-26T22:07:30.395Z,10.65
2022-10-26T22:09:40.673Z,10.30
2022-10-26T22:11:58.330Z,10.50
2022-10-26T22:14:02.947Z,10.25
2022-10-26T22:16:10.310Z,9.43
2022-10-26T22:18:14.740Z,8.85
2022-10-26T22:20:18.970Z,9.88
2022-10-26T22:22:23.535Z,10.68
2022-10-26T22:24:27.707Z,9.68
2022-10-26T22:26:34.600Z,10.27
2022-10-26T22:28:42.932Z,9.75
2022-10-26T22:30:47.717Z,10.48
2022-10-26T22:32:52.084Z,10.05
2022-10-26T22:35:10.462Z,11.00
2022-10-26T22:37:20.624Z,8.85
2022-10-26T22:39:26.006Z,9.25
2022-10-26T22:41:30.206Z,9.13
2022-10-26T22:43:34.638Z,9.15
2022-10-26T22:45:40.392Z,9.90
2022-10-26T22:47:44.776Z,10.57
2022-10-26T22:49:48.977Z,12.00
2022-10-26T22:51:53.293Z,10.75
2022-10-26T22:53:59.493Z,9.07
2022-10-26T22:56:04.986Z,8.48
2022-10-26T22:58:09.293Z,8.50
2022-10-26T23:00:14.655Z,8.10
2022-10-26T23:02:20.580Z,7.32
2022-10-26T23:04:25.051Z,7.25
2022-10-26T23:06:31.204Z,9.20
2022-10-26T23:08:35.686Z,7.72
2022-10-26T23:10:39.897Z,6.55
2022-10-26T23:12:44.570Z,7.65
2022-10-26T23:14:49.618Z,7.15
2022-10-26T23:16:53.811Z,7.03
2022-10-26T23:18:59.727Z,6.18
2022-10-26T23:21:05.168Z,6.05
2022-10-26T23:23:09.689Z,6.38
2022-10-26T23:25:14.018Z,6.05
2022-10-26T23:27:18.266Z,6.70
2022-10-26T23:29:22.571Z,7.00
2022-10-26T23:31:28.373Z,7.32
2022-10-26T23:33:33.222Z,8.05
2022-10-26T23:35:38.846Z,7.45
2022-10-26T23:37:43.240Z,7.10
2022-10-26T23:39:47.593Z,7.40
2022-10-26T23:41:52.140Z,5.93
2022-10-26T23:43:56.247Z,5.53
2022-10-26T23:46:00.439Z,6.20
2022-10-26T23:48:04.883Z,6.57
2022-10-26T23:50:09.614Z,5.78
2022-10-26T23:52:15.154Z,5.28
2022-10-26T23:54:19.337Z,4.65
2022-10-26T23:56:23.742Z,5.15
2022-10-26T23:58:27.867Z,5.20
